sensor_id;sensor_type;location;lat;lon;timestamp;pressure;altitude;pressure_sealevel;temperature;humidity
50682;BME280;36779;52.168;20.878;2022-08-07T00:02:56;101355.87;;;15.00;66.52
50682;BME280;36779;52.168;20.878;2022-08-07T00:05:44;101356.80;;;15.01;66.77
50682;BME280;36779;52.168;20.878;2022-08-07T00:08:34;101356.06;;;14.97;66.54
50682;BME280;36779;52.168;20.878;2022-08-07T00:11:32;101353.61;;;14.91;66.89
50682;BME280;36779;52.168;20.878;2022-08-07T00:14:13;101352.41;;;14.84;66.78
50682;BME280;36779;52.168;20.878;2022-08-07T00:17:09;101359.64;;;14.78;66.57
50682;BME280;36779;52.168;20.878;2022-08-07T00:19:59;101358.92;;;14.74;66.64
50682;BME280;36779;52.168;20.878;2022-08-07T00:22:51;101363.79;;;14.72;66.80
50682;BME280;36779;52.168;20.878;2022-08-07T00:25:41;101366.70;;;14.68;66.79
50682;BME280;36779;52.168;20.878;2022-08-07T00:28:35;101366.63;;;14.60;66.44
50682;BME280;36779;52.168;20.878;2022-08-07T00:31:43;101362.29;;;14.50;66.58
50682;BME280;36779;52.168;20.878;2022-08-07T00:34:37;101364.14;;;14.43;66.78
50682;BME280;36779;52.168;20.878;2022-08-07T00:37:26;101364.11;;;14.37;66.47
50682;BME280;36779;52.168;20.878;2022-08-07T00:40:36;101362.33;;;14.31;66.64
50682;BME280;36779;52.168;20.878;2022-08-07T00:43:28;101362.14;;;14.27;66.38
50682;BME280;36779;52.168;20.878;2022-08-07T00:46:37;101356.60;;;14.25;66.63
50682;BME280;36779;52.168;20.878;2022-08-07T00:49:27;101359.19;;;14.22;66.79
50682;BME280;36779;52.168;20.878;2022-08-07T00:52:37;101361.63;;;14.23;66.84
50682;BME280;36779;52.168;20.878;2022-08-07T00:55:29;101360.95;;;14.18;66.65
50682;BME280;36779;52.168;20.878;2022-08-07T00:58:41;101365.05;;;14.18;66.99
50682;BME280;36779;52.168;20.878;2022-08-07T01:01:34;101369.92;;;14.12;66.53
50682;BME280;36779;52.168;20.878;2022-08-07T01:04:33;101368.11;;;14.02;66.61
50682;BME280;36779;52.168;20.878;2022-08-07T01:07:31;101368.13;;;13.92;66.48
50682;BME280;36779;52.168;20.878;2022-08-07T01:10:21;101367.53;;;13.80;66.58
50682;BME280;36779;52.168;20.878;2022-08-07T01:13:10;101370.11;;;13.69;66.50
50682;BME280;36779;52.168;20.878;2022-08-07T01:16:05;101371.59;;;13.58;66.50
50682;BME280;36779;52.168;20.878;2022-08-07T01:18:55;101373.77;;;13.48;66.56
50682;BME280;36779;52.168;20.878;2022-08-07T01:21:46;101374.02;;;13.41;66.56
50682;BME280;36779;52.168;20.878;2022-08-07T01:24:35;101372.46;;;13.37;66.56
50682;BME280;36779;52.168;20.878;2022-08-07T01:27:25;101373.75;;;13.39;66.67
50682;BME280;36779;52.168;20.878;2022-08-07T01:30:18;101373.47;;;13.38;66.75
50682;BME280;36779;52.168;20.878;2022-08-07T01:33:15;101373.75;;;13.32;66.80
50682;BME280;36779;52.168;20.878;2022-08-07T01:36:08;101372.38;;;13.26;66.89
50682;BME280;36779;52.168;20.878;2022-08-07T01:39:05;101373.20;;;13.16;66.75
50682;BME280;36779;52.168;20.878;2022-08-07T01:41:58;101371.83;;;13.05;66.64
50682;BME280;36779;52.168;20.878;2022-08-07T01:45:10;101371.70;;;12.95;66.81
50682;BME280;36779;52.168;20.878;2022-08-07T01:48:10;101369.70;;;12.87;66.63
50682;BME280;36779;52.168;20.878;2022-08-07T01:51:19;101374.14;;;12.80;66.74
50682;BME280;36779;52.168;20.878;2022-08-07T01:54:29;101370.79;;;12.72;66.92
50682;BME280;36779;52.168;20.878;2022-08-07T01:57:27;101369.15;;;12.65;66.83
50682;BME280;36779;52.168;20.878;2022-08-07T02:00:21;101367.73;;;12.64;66.92
50682;BME280;36779;52.168;20.878;2022-08-07T02:03:19;101372.20;;;12.60;66.92
50682;BME280;36779;52.168;20.878;2022-08-07T02:06:30;101373.39;;;12.55;66.82
50682;BME280;36779;52.168;20.878;2022-08-07T02:09:23;101371.67;;;12.51;66.86
50682;BME280;36779;52.168;20.878;2022-08-07T02:12:38;101373.81;;;12.47;66.96
50682;BME280;36779;52.168;20.878;2022-08-07T02:15:35;101368.89;;;12.41;66.93
50682;BME280;36779;52.168;20.878;2022-08-07T02:18:28;101366.02;;;12.36;67.08
50682;BME280;36779;52.168;20.878;2022-08-07T02:21:20;101364.67;;;12.31;67.12
50682;BME280;36779;52.168;20.878;2022-08-07T02:24:10;101364.34;;;12.33;67.31
50682;BME280;36779;52.168;20.878;2022-08-07T02:27:09;101362.98;;;12.32;67.33
50682;BME280;36779;52.168;20.878;2022-08-07T02:30:02;101366.69;;;12.41;67.33
50682;BME280;36779;52.168;20.878;2022-08-07T02:32:55;101363.69;;;12.36;67.18
50682;BME280;36779;52.168;20.878;2022-08-07T02:35:57;101361.39;;;12.25;67.20
50682;BME280;36779;52.168;20.878;2022-08-07T02:39:10;101365.40;;;12.14;67.20
50682;BME280;36779;52.168;20.878;2022-08-07T02:42:20;101359.41;;;12.05;67.26
50682;BME280;36779;52.168;20.878;2022-08-07T02:45:11;101369.84;;;12.00;67.34
50682;BME280;36779;52.168;20.878;2022-08-07T02:48:21;101373.05;;;11.98;67.43
50682;BME280;36779;52.168;20.878;2022-08-07T02:51:12;101371.07;;;11.95;67.34
50682;BME280;36779;52.168;20.878;2022-08-07T02:54:23;101374.15;;;11.92;67.38
50682;BME280;36779;52.168;20.878;2022-08-07T02:57:15;101375.80;;;11.88;67.39
50682;BME280;36779;52.168;20.878;2022-08-07T03:00:14;101373.70;;;11.82;67.43
50682;BME280;36779;52.168;20.878;2022-08-07T03:03:08;101378.55;;;11.77;67.51
50682;BME280;36779;52.168;20.878;2022-08-07T03:06:01;101378.05;;;11.75;67.65
50682;BME280;36779;52.168;20.878;2022-08-07T03:08:51;101374.28;;;11.81;67.79
50682;BME280;36779;52.168;20.878;2022-08-07T03:11:42;101375.29;;;11.88;67.72
50682;BME280;36779;52.168;20.878;2022-08-07T03:14:46;101383.47;;;11.80;67.62
50682;BME280;36779;52.168;20.878;2022-08-07T03:17:41;101384.92;;;11.72;67.67
50682;BME280;36779;52.168;20.878;2022-08-07T03:20:44;101381.67;;;11.65;67.64
50682;BME280;36779;52.168;20.878;2022-08-07T03:23:28;101380.91;;;11.60;67.68
50682;BME280;36779;52.168;20.878;2022-08-07T03:26:38;101382.75;;;11.53;67.60
50682;BME280;36779;52.168;20.878;2022-08-07T03:29:47;101381.77;;;11.49;67.73
50682;BME280;36779;52.168;20.878;2022-08-07T03:32:40;101383.79;;;11.46;67.59
50682;BME280;36779;52.168;20.878;2022-08-07T03:35:47;101381.59;;;11.45;67.63
50682;BME280;36779;52.168;20.878;2022-08-07T03:38:39;101384.52;;;11.44;67.70
50682;BME280;36779;52.168;20.878;2022-08-07T03:41:32;101381.31;;;11.42;67.67
50682;BME280;36779;52.168;20.878;2022-08-07T03:44:36;101381.68;;;11.38;67.81
50682;BME280;36779;52.168;20.878;2022-08-07T03:47:27;101383.56;;;11.36;67.85
50682;BME280;36779;52.168;20.878;2022-08-07T03:50:27;101385.40;;;11.35;67.90
50682;BME280;36779;52.168;20.878;2022-08-07T03:53:16;101387.30;;;11.36;67.86
50682;BME280;36779;52.168;20.878;2022-08-07T03:56:10;101386.73;;;11.36;67.93
50682;BME280;36779;52.168;20.878;2022-08-07T03:58:54;101389.00;;;11.37;67.95
50682;BME280;36779;52.168;20.878;2022-08-07T04:01:58;101389.73;;;11.36;68.05
50682;BME280;36779;52.168;20.878;2022-08-07T04:04:42;101391.29;;;11.37;68.14
50682;BME280;36779;52.168;20.878;2022-08-07T04:07:35;101396.24;;;11.39;68.29
50682;BME280;36779;52.168;20.878;2022-08-07T04:10:33;101399.36;;;11.44;68.19
50682;BME280;36779;52.168;20.878;2022-08-07T04:13:26;101401.63;;;11.50;68.35
50682;BME280;36779;52.168;20.878;2022-08-07T04:16:36;101405.20;;;11.69;68.71
50682;BME280;36779;52.168;20.878;2022-08-07T04:19:30;101403.52;;;11.85;68.68
50682;BME280;36779;52.168;20.878;2022-08-07T04:22:40;101406.89;;;11.98;68.67
50682;BME280;36779;52.168;20.878;2022-08-07T04:25:41;101406.69;;;12.04;68.61
50682;BME280;36779;52.168;20.878;2022-08-07T04:28:31;101410.02;;;12.08;68.53
50682;BME280;36779;52.168;20.878;2022-08-07T04:31:23;101410.65;;;12.17;68.72
50682;BME280;36779;52.168;20.878;2022-08-07T04:34:33;101406.98;;;12.31;68.93
50682;BME280;36779;52.168;20.878;2022-08-07T04:37:27;101411.67;;;12.39;68.72
50682;BME280;36779;52.168;20.878;2022-08-07T04:40:16;101412.17;;;12.47;68.69
50682;BME280;36779;52.168;20.878;2022-08-07T04:43:09;101416.41;;;12.55;68.74
50682;BME280;36779;52.168;20.878;2022-08-07T04:46:05;101420.45;;;12.62;68.81
50682;BME280;36779;52.168;20.878;2022-08-07T04:49:15;101420.02;;;12.76;69.14
50682;BME280;36779;52.168;20.878;2022-08-07T04:52:20;101420.77;;;12.93;68.99
50682;BME280;36779;52.168;20.878;2022-08-07T04:55:21;101422.77;;;13.10;69.19
50682;BME280;36779;52.168;20.878;2022-08-07T04:58:44;101426.24;;;13.32;69.27
50682;BME280;36779;52.168;20.878;2022-08-07T05:02:01;101427.40;;;13.52;69.08
50682;BME280;36779;52.168;20.878;2022-08-07T05:04:59;101433.29;;;13.65;69.21
50682;BME280;36779;52.168;20.878;2022-08-07T05:07:55;101436.80;;;13.84;69.45
50682;BME280;36779;52.168;20.878;2022-08-07T05:10:48;101441.04;;;14.02;69.17
50682;BME280;36779;52.168;20.878;2022-08-07T05:13:51;101444.58;;;14.11;69.18
50682;BME280;36779;52.168;20.878;2022-08-07T05:17:03;101448.25;;;14.24;69.20
50682;BME280;36779;52.168;20.878;2022-08-07T05:20:00;101449.37;;;14.50;69.42
50682;BME280;36779;52.168;20.878;2022-08-07T05:23:00;101452.17;;;15.20;69.83
50682;BME280;36779;52.168;20.878;2022-08-07T05:25:53;101454.66;;;16.31;70.32
50682;BME280;36779;52.168;20.878;2022-08-07T05:29:05;101450.20;;;17.63;70.38
50682;BME280;36779;52.168;20.878;2022-08-07T05:31:57;101454.34;;;18.59;70.15
50682;BME280;36779;52.168;20.878;2022-08-07T05:34:47;101456.23;;;19.34;69.55
50682;BME280;36779;52.168;20.878;2022-08-07T05:37:38;101455.05;;;19.47;68.70
50682;BME280;36779;52.168;20.878;2022-08-07T05:40:30;101454.03;;;19.66;68.46
50682;BME280;36779;52.168;20.878;2022-08-07T05:43:22;101456.59;;;19.84;68.05
50682;BME280;36779;52.168;20.878;2022-08-07T05:46:31;101456.70;;;20.06;67.89
50682;BME280;36779;52.168;20.878;2022-08-07T05:49:22;101457.91;;;20.38;67.77
50682;BME280;36779;52.168;20.878;2022-08-07T05:52:11;101457.56;;;20.36;66.55
50682;BME280;36779;52.168;20.878;2022-08-07T05:55:02;101459.02;;;20.12;65.95
50682;BME280;36779;52.168;20.878;2022-08-07T05:57:59;101460.24;;;19.73;65.10
50682;BME280;36779;52.168;20.878;2022-08-07T06:00:50;101459.75;;;19.32;65.04
50682;BME280;36779;52.168;20.878;2022-08-07T06:03:44;101456.32;;;19.01;65.07
50682;BME280;36779;52.168;20.878;2022-08-07T06:06:47;101459.59;;;18.78;65.21
50682;BME280;36779;52.168;20.878;2022-08-07T06:09:54;101456.50;;;18.45;65.12
50682;BME280;36779;52.168;20.878;2022-08-07T06:12:53;101458.02;;;18.15;65.10
50682;BME280;36779;52.168;20.878;2022-08-07T06:15:42;101454.09;;;17.91;65.20
50682;BME280;36779;52.168;20.878;2022-08-07T06:18:34;101455.48;;;17.67;65.14
50682;BME280;36779;52.168;20.878;2022-08-07T06:21:26;101456.48;;;17.44;65.30
50682;BME280;36779;52.168;20.878;2022-08-07T06:24:36;101455.15;;;17.36;65.71
50682;BME280;36779;52.168;20.878;2022-08-07T06:27:45;101458.33;;;17.22;65.53
50682;BME280;36779;52.168;20.878;2022-08-07T06:30:50;101457.52;;;17.07;65.62
50682;BME280;36779;52.168;20.878;2022-08-07T06:33:41;101457.88;;;17.00;65.49
50682;BME280;36779;52.168;20.878;2022-08-07T06:36:30;101461.33;;;16.98;65.67
50682;BME280;36779;52.168;20.878;2022-08-07T06:39:23;101460.11;;;17.03;66.04
50682;BME280;36779;52.168;20.878;2022-08-07T06:42:34;101463.55;;;17.02;65.91
50682;BME280;36779;52.168;20.878;2022-08-07T06:45:43;101465.56;;;16.94;65.62
50682;BME280;36779;52.168;20.878;2022-08-07T06:48:32;101471.05;;;16.87;65.56
50682;BME280;36779;52.168;20.878;2022-08-07T06:51:25;101471.95;;;16.82;65.67
50682;BME280;36779;52.168;20.878;2022-08-07T06:54:24;101475.92;;;16.82;65.64
50682;BME280;36779;52.168;20.878;2022-08-07T06:57:37;101479.04;;;16.80;65.55
50682;BME280;36779;52.168;20.878;2022-08-07T07:00:40;101477.41;;;16.73;65.38
50682;BME280;36779;52.168;20.878;2022-08-07T07:03:30;101479.21;;;16.73;65.58
50682;BME280;36779;52.168;20.878;2022-08-07T07:06:41;101484.14;;;16.76;65.52
50682;BME280;36779;52.168;20.878;2022-08-07T07:09:49;101482.40;;;16.79;65.51
50682;BME280;36779;52.168;20.878;2022-08-07T07:12:48;101481.84;;;16.80;65.31
50682;BME280;36779;52.168;20.878;2022-08-07T07:15:45;101482.31;;;16.84;65.09
50682;BME280;36779;52.168;20.878;2022-08-07T07:18:42;101477.35;;;16.85;65.07
50682;BME280;36779;52.168;20.878;2022-08-07T07:21:37;101471.67;;;16.84;64.97
50682;BME280;36779;52.168;20.878;2022-08-07T07:24:50;101472.30;;;16.85;64.99
50682;BME280;36779;52.168;20.878;2022-08-07T07:28:02;101470.88;;;16.84;64.83
50682;BME280;36779;52.168;20.878;2022-08-07T07:31:22;101462.72;;;16.86;64.66
50682;BME280;36779;52.168;20.878;2022-08-07T07:34:27;101459.50;;;16.93;64.89
50682;BME280;36779;52.168;20.878;2022-08-07T07:37:20;101461.41;;;16.97;64.58
50682;BME280;36779;52.168;20.878;2022-08-07T07:40:30;101459.27;;;16.98;64.68
50682;BME280;36779;52.168;20.878;2022-08-07T07:43:24;101459.95;;;17.02;64.52
50682;BME280;36779;52.168;20.878;2022-08-07T07:46:36;101459.77;;;17.08;64.59
50682;BME280;36779;52.168;20.878;2022-08-07T07:49:46;101458.72;;;17.14;64.32
50682;BME280;36779;52.168;20.878;2022-08-07T07:52:56;101463.55;;;17.17;64.28
50682;BME280;36779;52.168;20.878;2022-08-07T07:55:50;101458.27;;;17.22;64.30
50682;BME280;36779;52.168;20.878;2022-08-07T07:58:46;101456.81;;;17.32;64.19
50682;BME280;36779;52.168;20.878;2022-08-07T08:01:42;101457.36;;;17.35;63.95
50682;BME280;36779;52.168;20.878;2022-08-07T08:04:53;101458.22;;;17.41;64.13
50682;BME280;36779;52.168;20.878;2022-08-07T08:07:47;101456.85;;;17.44;63.81
50682;BME280;36779;52.168;20.878;2022-08-07T08:10:47;101457.64;;;17.41;63.79
50682;BME280;36779;52.168;20.878;2022-08-07T08:13:45;101458.33;;;17.45;63.56
50682;BME280;36779;52.168;20.878;2022-08-07T08:16:44;101453.73;;;17.53;63.66
50682;BME280;36779;52.168;20.878;2022-08-07T08:19:39;101456.56;;;17.61;63.59
50682;BME280;36779;52.168;20.878;2022-08-07T08:22:50;101454.05;;;17.70;63.56
50682;BME280;36779;52.168;20.878;2022-08-07T08:26:04;101456.34;;;17.81;63.46
50682;BME280;36779;52.168;20.878;2022-08-07T08:29:16;101452.04;;;17.87;63.40
50682;BME280;36779;52.168;20.878;2022-08-07T08:32:08;101449.79;;;17.98;63.44
50682;BME280;36779;52.168;20.878;2022-08-07T08:35:09;101453.60;;;18.06;63.22
50682;BME280;36779;52.168;20.878;2022-08-07T08:38:05;101457.31;;;18.07;62.93
50682;BME280;36779;52.168;20.878;2022-08-07T08:41:00;101459.14;;;18.13;63.14
50682;BME280;36779;52.168;20.878;2022-08-07T08:43:58;101452.30;;;18.24;63.04
50682;BME280;36779;52.168;20.878;2022-08-07T08:46:55;101459.89;;;18.28;62.80
50682;BME280;36779;52.168;20.878;2022-08-07T08:49:58;101465.94;;;18.27;62.61
50682;BME280;36779;52.168;20.878;2022-08-07T08:53:01;101467.81;;;18.31;62.42
50682;BME280;36779;52.168;20.878;2022-08-07T08:55:53;101464.20;;;18.40;62.45
50682;BME280;36779;52.168;20.878;2022-08-07T08:58:47;101459.20;;;18.52;62.58
50682;BME280;36779;52.168;20.878;2022-08-07T09:01:45;101459.02;;;18.82;62.91
50682;BME280;36779;52.168;20.878;2022-08-07T09:04:42;101457.95;;;19.27;62.83
50682;BME280;36779;52.168;20.878;2022-08-07T09:07:40;101454.31;;;19.67;62.66
50682;BME280;36779;52.168;20.878;2022-08-07T09:10:51;101455.38;;;20.09;62.31
50682;BME280;36779;52.168;20.878;2022-08-07T09:14:00;101456.98;;;20.37;61.97
50682;BME280;36779;52.168;20.878;2022-08-07T09:16:56;101450.27;;;20.80;62.02
50682;BME280;36779;52.168;20.878;2022-08-07T09:19:53;101443.64;;;21.29;61.74
50682;BME280;36779;52.168;20.878;2022-08-07T09:22:54;101441.55;;;21.81;61.65
50682;BME280;36779;52.168;20.878;2022-08-07T09:26:21;101443.80;;;22.39;61.53
50682;BME280;36779;52.168;20.878;2022-08-07T09:29:20;101444.64;;;22.90;60.95
50682;BME280;36779;52.168;20.878;2022-08-07T09:32:48;101445.46;;;22.93;59.61
50682;BME280;36779;52.168;20.878;2022-08-07T09:35:46;101441.40;;;22.68;59.22
50682;BME280;36779;52.168;20.878;2022-08-07T09:39:02;101436.19;;;22.68;59.33
50682;BME280;36779;52.168;20.878;2022-08-07T09:42:25;101430.80;;;23.04;59.60
50682;BME280;36779;52.168;20.878;2022-08-07T09:45:34;101429.44;;;23.51;59.63
50682;BME280;36779;52.168;20.878;2022-08-07T09:48:45;101424.92;;;23.86;59.10
50682;BME280;36779;52.168;20.878;2022-08-07T09:52:04;101420.17;;;24.26;59.13
50682;BME280;36779;52.168;20.878;2022-08-07T09:55:20;101410.13;;;24.83;59.16
50682;BME280;36779;52.168;20.878;2022-08-07T10:02:00;101409.17;;;25.33;57.94
50682;BME280;36779;52.168;20.878;2022-08-07T10:05:04;101410.03;;;25.25;56.95
50682;BME280;36779;52.168;20.878;2022-08-07T10:08:13;101405.41;;;25.19;57.01
50682;BME280;36779;52.168;20.878;2022-08-07T10:11:02;101407.55;;;25.35;56.98
50682;BME280;36779;52.168;20.878;2022-08-07T10:14:15;101400.19;;;25.65;57.08
50682;BME280;36779;52.168;20.878;2022-08-07T10:21:01;101391.67;;;25.99;56.09
50682;BME280;36779;52.168;20.878;2022-08-07T10:24:27;101387.94;;;26.26;55.97
50682;BME280;36779;52.168;20.878;2022-08-07T10:27:56;101391.94;;;26.24;55.25
50682;BME280;36779;52.168;20.878;2022-08-07T10:31:01;101393.07;;;25.95;54.30
50682;BME280;36779;52.168;20.878;2022-08-07T10:34:07;101395.48;;;25.65;54.36
50682;BME280;36779;52.168;20.878;2022-08-07T10:37:17;101397.17;;;25.60;54.73
50682;BME280;36779;52.168;20.878;2022-08-07T10:40:37;101392.32;;;25.70;54.41
50682;BME280;36779;52.168;20.878;2022-08-07T10:43:32;101392.67;;;25.82;54.52
50682;BME280;36779;52.168;20.878;2022-08-07T10:46:25;101390.39;;;25.64;53.41
50682;BME280;36779;52.168;20.878;2022-08-07T10:49:22;101383.15;;;25.21;53.33
50682;BME280;36779;52.168;20.878;2022-08-07T10:52:43;101382.45;;;25.28;53.87
50682;BME280;36779;52.168;20.878;2022-08-07T10:55:44;101381.19;;;25.40;53.47
50682;BME280;36779;52.168;20.878;2022-08-07T10:58:52;101377.77;;;25.40;53.45
50682;BME280;36779;52.168;20.878;2022-08-07T11:01:52;101372.89;;;25.56;53.10
50682;BME280;36779;52.168;20.878;2022-08-07T11:05:10;101372.54;;;25.23;52.46
50682;BME280;36779;52.168;20.878;2022-08-07T11:08:10;101371.01;;;25.27;52.98
50682;BME280;36779;52.168;20.878;2022-08-07T11:11:09;101370.66;;;25.56;53.16
50682;BME280;36779;52.168;20.878;2022-08-07T11:14:06;101372.70;;;25.66;52.60
50682;BME280;36779;52.168;20.878;2022-08-07T11:17:20;101366.84;;;25.92;52.72
50682;BME280;36779;52.168;20.878;2022-08-07T11:20:39;101365.56;;;26.20;52.55
50682;BME280;36779;52.168;20.878;2022-08-07T11:23:46;101361.85;;;26.37;52.35
50682;BME280;36779;52.168;20.878;2022-08-07T11:26:43;101359.27;;;26.63;52.37
50682;BME280;36779;52.168;20.878;2022-08-07T11:29:42;101358.28;;;26.98;52.55
50682;BME280;36779;52.168;20.878;2022-08-07T11:32:46;101353.16;;;27.32;52.50
50682;BME280;36779;52.168;20.878;2022-08-07T11:35:45;101353.00;;;27.45;51.47
50682;BME280;36779;52.168;20.878;2022-08-07T11:39:11;101347.75;;;27.02;50.76
50682;BME280;36779;52.168;20.878;2022-08-07T11:42:14;101350.35;;;26.72;50.54
50682;BME280;36779;52.168;20.878;2022-08-07T11:45:17;101349.73;;;26.46;50.33
50682;BME280;36779;52.168;20.878;2022-08-07T11:52:18;101344.04;;;26.34;50.44
50682;BME280;36779;52.168;20.878;2022-08-07T11:55:38;101336.92;;;26.64;50.54
50682;BME280;36779;52.168;20.878;2022-08-07T11:59:04;101335.47;;;26.59;49.92
50682;BME280;36779;52.168;20.878;2022-08-07T12:02:27;101331.25;;;26.50;49.64
50682;BME280;36779;52.168;20.878;2022-08-07T12:05:29;101329.02;;;26.51;49.61
50682;BME280;36779;52.168;20.878;2022-08-07T12:08:39;101332.11;;;26.37;49.15
50682;BME280;36779;52.168;20.878;2022-08-07T12:11:34;101329.85;;;26.15;48.94
50682;BME280;36779;52.168;20.878;2022-08-07T12:14:51;101325.25;;;25.81;48.61
50682;BME280;36779;52.168;20.878;2022-08-07T12:17:54;101321.13;;;25.53;48.79
50682;BME280;36779;52.168;20.878;2022-08-07T12:20:59;101319.45;;;25.78;49.38
50682;BME280;36779;52.168;20.878;2022-08-07T12:23:56;101315.46;;;26.14;49.58
50682;BME280;36779;52.168;20.878;2022-08-07T12:27:06;101316.98;;;26.37;49.26
50682;BME280;36779;52.168;20.878;2022-08-07T12:30:09;101314.44;;;26.32;48.73
50682;BME280;36779;52.168;20.878;2022-08-07T12:33:03;101310.80;;;26.14;48.48
50682;BME280;36779;52.168;20.878;2022-08-07T12:36:07;101309.59;;;26.14;48.44
50682;BME280;36779;52.168;20.878;2022-08-07T12:38:59;101304.80;;;26.11;48.34
50682;BME280;36779;52.168;20.878;2022-08-07T12:41:51;101306.71;;;26.09;48.16
50682;BME280;36779;52.168;20.878;2022-08-07T12:44:43;101303.83;;;26.06;48.07
50682;BME280;36779;52.168;20.878;2022-08-07T12:47:40;101304.32;;;26.01;47.88
50682;BME280;36779;52.168;20.878;2022-08-07T12:50:41;101302.94;;;26.00;47.71
50682;BME280;36779;52.168;20.878;2022-08-07T12:53:42;101299.29;;;26.04;47.71
50682;BME280;36779;52.168;20.878;2022-08-07T12:56:55;101297.45;;;25.91;47.27
50682;BME280;36779;52.168;20.878;2022-08-07T12:59:49;101297.77;;;25.69;47.18
50682;BME280;36779;52.168;20.878;2022-08-07T13:02:56;101293.61;;;25.55;47.01
50682;BME280;36779;52.168;20.878;2022-08-07T13:06:00;101293.00;;;25.50;47.15
50682;BME280;36779;52.168;20.878;2022-08-07T13:09:21;101295.39;;;25.65;47.34
50682;BME280;36779;52.168;20.878;2022-08-07T13:12:48;101287.55;;;25.80;47.28
50682;BME280;36779;52.168;20.878;2022-08-07T13:15:48;101285.59;;;25.96;47.39
50682;BME280;36779;52.168;20.878;2022-08-07T13:18:38;101282.67;;;26.01;47.03
50682;BME280;36779;52.168;20.878;2022-08-07T13:21:35;101278.55;;;26.05;46.81
50682;BME280;36779;52.168;20.878;2022-08-07T13:24:52;101272.14;;;25.83;46.39
50682;BME280;36779;52.168;20.878;2022-08-07T13:27:49;101272.63;;;25.65;46.45
50682;BME280;36779;52.168;20.878;2022-08-07T13:31:03;101271.25;;;25.59;46.43
50682;BME280;36779;52.168;20.878;2022-08-07T13:34:05;101268.15;;;25.62;46.63
50682;BME280;36779;52.168;20.878;2022-08-07T13:37:24;101264.47;;;25.76;46.66
50682;BME280;36779;52.168;20.878;2022-08-07T13:40:24;101264.45;;;25.71;46.46
50682;BME280;36779;52.168;20.878;2022-08-07T13:43:30;101269.98;;;25.54;46.12
50682;BME280;36779;52.168;20.878;2022-08-07T13:46:22;101263.11;;;25.41;46.18
50682;BME280;36779;52.168;20.878;2022-08-07T13:49:21;101265.64;;;25.42;46.19
50682;BME280;36779;52.168;20.878;2022-08-07T13:52:32;101260.92;;;25.31;45.92
50682;BME280;36779;52.168;20.878;2022-08-07T13:55:30;101256.02;;;25.06;45.78
50682;BME280;36779;52.168;20.878;2022-08-07T13:58:25;101252.03;;;24.63;45.46
50682;BME280;36779;52.168;20.878;2022-08-07T14:01:51;101254.73;;;24.15;45.47
50682;BME280;36779;52.168;20.878;2022-08-07T14:04:58;101257.67;;;23.80;45.72
50682;BME280;36779;52.168;20.878;2022-08-07T14:07:49;101254.73;;;23.64;45.97
50682;BME280;36779;52.168;20.878;2022-08-07T14:10:49;101248.23;;;23.74;46.36
50682;BME280;36779;52.168;20.878;2022-08-07T14:14:03;101247.21;;;23.85;46.34
50682;BME280;36779;52.168;20.878;2022-08-07T14:16:57;101244.38;;;23.91;46.37
50682;BME280;36779;52.168;20.878;2022-08-07T14:20:09;101241.70;;;23.81;46.09
50682;BME280;36779;52.168;20.878;2022-08-07T14:23:27;101237.27;;;23.65;46.05
50682;BME280;36779;52.168;20.878;2022-08-07T14:26:41;101232.61;;;23.59;46.10
50682;BME280;36779;52.168;20.878;2022-08-07T14:29:47;101227.73;;;23.52;46.11
50682;BME280;36779;52.168;20.878;2022-08-07T14:32:58;101226.61;;;23.60;46.25
50682;BME280;36779;52.168;20.878;2022-08-07T14:35:43;101219.39;;;23.73;46.35
50682;BME280;36779;52.168;20.878;2022-08-07T14:38:35;101217.55;;;23.76;46.27
50682;BME280;36779;52.168;20.878;2022-08-07T14:41:26;101219.10;;;23.68;46.12
50682;BME280;36779;52.168;20.878;2022-08-07T14:44:45;101213.71;;;23.63;46.29
50682;BME280;36779;52.168;20.878;2022-08-07T14:47:41;101216.15;;;23.55;46.08
50682;BME280;36779;52.168;20.878;2022-08-07T14:50:40;101212.52;;;23.50;46.08
50682;BME280;36779;52.168;20.878;2022-08-07T14:53:31;101207.23;;;23.45;46.00
50682;BME280;36779;52.168;20.878;2022-08-07T14:56:42;101205.31;;;23.37;45.96
50682;BME280;36779;52.168;20.878;2022-08-07T14:59:33;101204.09;;;23.26;45.76
50682;BME280;36779;52.168;20.878;2022-08-07T15:02:45;101203.09;;;23.11;45.82
50682;BME280;36779;52.168;20.878;2022-08-07T15:05:46;101207.42;;;23.01;45.97
50682;BME280;36779;52.168;20.878;2022-08-07T15:08:51;101206.45;;;23.00;46.16
50682;BME280;36779;52.168;20.878;2022-08-07T15:11:46;101205.02;;;23.01;46.09
50682;BME280;36779;52.168;20.878;2022-08-07T15:14:48;101205.23;;;23.02;46.21
50682;BME280;36779;52.168;20.878;2022-08-07T15:17:52;101202.45;;;22.96;46.10
50682;BME280;36779;52.168;20.878;2022-08-07T15:20:44;101199.05;;;22.94;46.15
50682;BME280;36779;52.168;20.878;2022-08-07T15:23:45;101199.60;;;22.90;46.06
50682;BME280;36779;52.168;20.878;2022-08-07T15:27:04;101196.20;;;22.81;46.15
50682;BME280;36779;52.168;20.878;2022-08-07T15:29:56;101192.90;;;22.67;46.00
50682;BME280;36779;52.168;20.878;2022-08-07T15:33:03;101191.39;;;22.48;46.02
50682;BME280;36779;52.168;20.878;2022-08-07T15:36:13;101186.63;;;22.42;46.15
50682;BME280;36779;52.168;20.878;2022-08-07T15:39:24;101185.67;;;22.41;46.20
50682;BME280;36779;52.168;20.878;2022-08-07T15:42:47;101180.12;;;22.29;46.13
50682;BME280;36779;52.168;20.878;2022-08-07T15:45:41;101178.23;;;22.19;46.06
50682;BME280;36779;52.168;20.878;2022-08-07T15:48:49;101173.91;;;22.12;46.09